Antimony, Utah
Current Conditions -  °F | °C
As of 1:53 AM on Friday 24 Oct 2014 (Local Time) from KBCE Reporting Station
Clear Clear  
Wind Chill: 20°   Ceiling: Unl
Heat Index: 27°   Visibility: 10mi
Dew Point: 23°   Wind: 6mph
Humidity: 85%   Direction: 240°WSW
Pressure: 30.37"   Gusts: NA
Location:  38.12°N, 112°W
Report Text: KBCE 240753Z AUTO 24005KT 10SM CLR M03/M05 A3037 RMK AO2 SLP219 T10281050 TSNO
Loading
Personal Weather Stations






























Interactive Weather Map
Tropical Storm Tracking
New forecast layout! Learn more

10-Day Weather Forecast

Advertisements
Track Severe Weather on mobile